Norbeck, Maryland
Current Conditions -  °F | °C
As of 9:35 PM on Thursday 20 Nov 2014 (Local Time) from KGAI Reporting Station
Clear Clear  
Wind Chill: 34°   Ceiling: Unl
Heat Index: 34°   Visibility: 10mi
Dew Point: 10°   Wind: 3mph
Humidity: 38%   Direction: 310°NW
Pressure: 30.1"   Gusts: NA
Location:  39.0912°N, 77.0554°W
Report Text: KGAI 210235Z 31003KT 10SM CLR 01/M12 A3010 RMK AO1
Loading
Personal Weather Stations






























Interactive Weather Map New forecast layout! Learn more

10-Day Weather Forecast

Advertisements
Track Severe Weather on mobile